createdAt,value
2022-08-07T00:00:12.947Z,19.40
2022-08-07T00:02:46.164Z,19.40
2022-08-07T00:05:13.557Z,19.44
2022-08-07T00:07:47.198Z,19.42
2022-08-07T00:10:26.005Z,19.42
2022-08-07T00:13:01.789Z,19.41
2022-08-07T00:15:38.485Z,19.43
2022-08-07T00:18:23.996Z,19.39
2022-08-07T00:21:01.364Z,19.42
2022-08-07T00:23:36.158Z,19.46
2022-08-07T00:26:18.829Z,19.50
2022-08-07T00:29:01.164Z,19.45
2022-08-07T00:31:37.874Z,19.48
2022-08-07T00:34:08.797Z,19.40
2022-08-07T00:36:43.205Z,19.41
2022-08-07T00:39:23.180Z,19.42
2022-08-07T00:42:01.855Z,19.46
2022-08-07T00:44:41.349Z,19.46
2022-08-07T00:48:07.757Z,19.48
2022-08-07T00:50:19.309Z,19.50
2022-08-07T00:52:55.318Z,19.56
2022-08-07T00:56:00.476Z,19.53
2022-08-07T00:58:22.136Z,19.48
2022-08-07T01:00:56.154Z,19.47
2022-08-07T01:03:56.860Z,19.45
2022-08-07T01:06:16.145Z,19.47
2022-08-07T01:08:53.520Z,19.50
2022-08-07T01:12:09.036Z,19.58
2022-08-07T01:14:16.654Z,19.49
2022-08-07T01:16:51.168Z,19.47
2022-08-07T01:19:19.727Z,19.51
2022-08-07T01:21:55.587Z,19.52
2022-08-07T01:24:22.489Z,19.54
2022-08-07T01:26:58.173Z,19.52
2022-08-07T01:29:33.974Z,19.51
2022-08-07T01:32:01.071Z,19.55
2022-08-07T01:34:39.152Z,19.54
2022-08-07T01:37:12.140Z,19.50
2022-08-07T01:39:46.479Z,19.50
2022-08-07T01:42:40.088Z,19.54
2022-08-07T01:45:18.162Z,19.52
2022-08-07T01:48:19.876Z,19.49
2022-08-07T01:50:45.912Z,19.54
2022-08-07T01:53:21.630Z,19.58
2022-08-07T01:56:10.782Z,19.56
2022-08-07T01:58:48.164Z,19.54
2022-08-07T02:01:25.531Z,19.58
2022-08-07T02:04:16.190Z,19.56
2022-08-07T02:06:43.172Z,19.51
2022-08-07T02:09:51.900Z,19.46
2022-08-07T02:12:29.283Z,19.42
2022-08-07T02:15:05.910Z,19.35
2022-08-07T02:17:40.220Z,19.32
2022-08-07T02:20:19.702Z,19.34
2022-08-07T02:22:57.152Z,19.28
2022-08-07T02:26:10.127Z,19.28
2022-08-07T02:28:25.442Z,19.30
2022-08-07T02:31:28.156Z,19.25
2022-08-07T02:34:03.295Z,19.19
2022-08-07T02:36:38.261Z,19.14
2022-08-07T02:39:42.909Z,19.07
2022-08-07T02:42:16.303Z,19.12
2022-08-07T02:44:52.047Z,19.17
2022-08-07T02:47:23.574Z,19.11
2022-08-07T02:49:59.853Z,19.10
2022-08-07T02:52:38.309Z,19.13
2022-08-07T02:55:15.341Z,19.21
2022-08-07T02:57:59.015Z,19.23
2022-08-07T03:00:33.315Z,19.29
2022-08-07T03:03:00.140Z,19.36
2022-08-07T03:05:40.135Z,19.31
2022-08-07T03:08:10.100Z,19.32
2022-08-07T03:10:46.595Z,19.30
2022-08-07T03:13:15.475Z,19.27
2022-08-07T03:15:56.500Z,19.28
2022-08-07T03:18:35.008Z,19.28
2022-08-07T03:21:11.368Z,19.25
2022-08-07T03:24:21.081Z,19.24
2022-08-07T03:26:33.780Z,19.24
2022-08-07T03:29:11.210Z,19.23
2022-08-07T03:31:46.456Z,19.25
2022-08-07T03:34:27.179Z,19.20
2022-08-07T03:37:01.245Z,19.29
2022-08-07T03:39:59.403Z,19.19
2022-08-07T03:42:41.151Z,19.14
2022-08-07T03:45:30.437Z,19.12
2022-08-07T03:47:58.878Z,19.17
2022-08-07T03:50:33.122Z,19.18
2022-08-07T03:53:01.581Z,19.24
2022-08-07T03:55:53.119Z,19.21
2022-08-07T03:59:04.834Z,19.19
2022-08-07T04:01:17.172Z,19.09
2022-08-07T04:03:49.902Z,19.07
2022-08-07T04:06:37.402Z,19.01
2022-08-07T04:09:05.404Z,19.02
2022-08-07T04:12:21.175Z,19.05
2022-08-07T04:14:38.782Z,19.11
2022-08-07T04:17:20.518Z,19.13
2022-08-07T04:19:55.395Z,19.11
2022-08-07T04:22:27.464Z,19.08
2022-08-07T04:25:03.134Z,19.03
2022-08-07T04:27:39.409Z,18.98
2022-08-07T04:30:21.335Z,18.95
2022-08-07T04:33:14.010Z,18.90
2022-08-07T04:36:06.622Z,18.87
2022-08-07T04:38:40.104Z,18.86
2022-08-07T04:41:07.787Z,18.91
2022-08-07T04:44:12.607Z,18.87
2022-08-07T04:46:35.953Z,18.84
2022-08-07T04:49:27.682Z,18.81
2022-08-07T04:52:02.109Z,18.81
2022-08-07T04:54:53.607Z,18.83
2022-08-07T04:58:11.835Z,18.89
2022-08-07T05:00:32.842Z,18.92
2022-08-07T05:03:16.737Z,19.01
2022-08-07T05:06:19.459Z,18.96
2022-08-07T05:09:01.352Z,19.02
2022-08-07T05:11:57.159Z,19.04
2022-08-07T05:14:54.137Z,19.07
2022-08-07T05:17:51.829Z,19.13
2022-08-07T05:20:32.133Z,19.14
2022-08-07T05:23:15.457Z,19.17
2022-08-07T05:26:10.738Z,19.29
2022-08-07T05:28:40.519Z,19.24
2022-08-07T05:31:16.661Z,19.36
2022-08-07T05:34:01.387Z,19.42
2022-08-07T05:36:53.210Z,19.38
2022-08-07T05:40:17.436Z,19.40
2022-08-07T05:42:34.924Z,19.48
2022-08-07T05:45:26.401Z,19.58
2022-08-07T05:48:05.301Z,19.56
2022-08-07T05:50:34.408Z,19.53
2022-08-07T05:54:13.912Z,19.53
2022-08-07T05:56:01.881Z,19.61
2022-08-07T05:58:37.215Z,19.59
2022-08-07T06:01:08.449Z,19.53
2022-08-07T06:03:56.598Z,19.56
2022-08-07T06:06:29.441Z,19.59
2022-08-07T06:09:04.392Z,19.58
2022-08-07T06:11:32.732Z,19.51
2022-08-07T06:14:11.703Z,19.50
2022-08-07T06:16:50.004Z,19.56
2022-08-07T06:19:47.887Z,19.60
2022-08-07T06:22:23.914Z,19.62
2022-08-07T06:24:58.360Z,19.67
2022-08-07T06:27:43.919Z,19.74
2022-08-07T06:30:35.146Z,19.75
2022-08-07T06:33:16.194Z,19.79
2022-08-07T06:35:45.477Z,19.79
2022-08-07T06:38:30.482Z,19.85
2022-08-07T06:41:00.245Z,19.83
2022-08-07T06:43:40.119Z,19.88
2022-08-07T06:46:13.502Z,19.89
2022-08-07T06:48:47.108Z,19.92
2022-08-07T06:51:30.965Z,19.90
2022-08-07T06:55:34.390Z,19.95
2022-08-07T06:57:00.923Z,20.02
2022-08-07T07:00:12.030Z,20.11
2022-08-07T07:02:53.805Z,20.03
2022-08-07T07:06:03.226Z,20.03
2022-08-07T07:08:18.905Z,20.06
2022-08-07T07:11:13.130Z,19.99
2022-08-07T07:13:58.781Z,19.94
2022-08-07T07:16:30.946Z,19.90
2022-08-07T07:19:54.454Z,19.87
2022-08-07T07:22:11.788Z,19.83
2022-08-07T07:25:02.632Z,19.75
2022-08-07T07:27:55.562Z,19.77
2022-08-07T07:30:26.607Z,19.77
2022-08-07T07:33:12.357Z,19.73
2022-08-07T07:36:03.847Z,19.81
2022-08-07T07:38:47.614Z,19.86
2022-08-07T07:41:16.093Z,19.90
2022-08-07T07:44:17.435Z,19.93
2022-08-07T07:46:55.648Z,20.00
2022-08-07T07:50:34.008Z,20.09
2022-08-07T07:52:28.313Z,20.20
2022-08-07T07:54:55.822Z,20.27
2022-08-07T07:57:52.606Z,20.34
2022-08-07T08:00:29.779Z,20.40
2022-08-07T08:03:16.336Z,20.44
2022-08-07T08:05:54.762Z,20.54
2022-08-07T08:08:36.837Z,20.65
2022-08-07T08:11:08.126Z,20.65
2022-08-07T08:13:54.006Z,20.65
2022-08-07T08:16:37.749Z,20.70
2022-08-07T08:20:16.137Z,20.76
2022-08-07T08:22:32.734Z,20.73
2022-08-07T08:25:41.877Z,20.76
2022-08-07T08:28:37.374Z,20.80
2022-08-07T08:31:05.409Z,20.92
2022-08-07T08:33:41.120Z,20.93
2022-08-07T08:36:46.403Z,20.99
2022-08-07T08:39:13.651Z,21.00
2022-08-07T08:42:04.114Z,20.97
2022-08-07T08:44:44.823Z,20.89
2022-08-07T08:47:52.045Z,20.92
2022-08-07T08:50:40.240Z,20.90
2022-08-07T08:53:33.077Z,20.99
2022-08-07T08:56:03.021Z,20.98
2022-08-07T08:58:57.069Z,20.96
2022-08-07T09:01:50.886Z,21.01
2022-08-07T09:04:43.079Z,20.96
2022-08-07T09:07:11.331Z,21.02
2022-08-07T09:09:57.115Z,21.02
2022-08-07T09:12:42.690Z,21.07
2022-08-07T09:16:23.066Z,21.09
2022-08-07T09:18:41.455Z,21.08
2022-08-07T09:22:09.863Z,21.05
2022-08-07T09:25:00.260Z,21.01
2022-08-07T09:27:59.530Z,21.08
2022-08-07T09:30:59.086Z,21.17
2022-08-07T09:33:53.164Z,21.21
2022-08-07T09:36:33.572Z,21.25
2022-08-07T09:39:55.289Z,21.31
2022-08-07T09:42:09.976Z,21.38
2022-08-07T09:47:25.813Z,21.39
2022-08-07T09:48:12.278Z,21.41
2022-08-07T09:50:54.409Z,21.46
2022-08-07T09:53:26.410Z,21.45
2022-08-07T09:56:41.812Z,21.49
2022-08-07T09:59:15.019Z,21.55
2022-08-07T10:02:03.344Z,21.58
2022-08-07T10:04:45.977Z,21.63
2022-08-07T10:07:52.164Z,21.64
2022-08-07T10:11:00.243Z,21.74
2022-08-07T10:13:54.986Z,21.78
2022-08-07T10:16:25.078Z,21.84
2022-08-07T10:19:20.066Z,21.90
2022-08-07T10:22:16.014Z,21.95
2022-08-07T10:24:56.051Z,22.01
2022-08-07T10:27:46.004Z,22.09
2022-08-07T10:30:33.240Z,22.22
2022-08-07T10:33:00.229Z,22.29
2022-08-07T10:35:56.601Z,22.37
2022-08-07T10:38:48.734Z,22.42
2022-08-07T10:41:53.052Z,22.50
2022-08-07T10:44:45.424Z,22.59
2022-08-07T10:47:27.107Z,22.68
2022-08-07T10:50:26.533Z,22.75
2022-08-07T10:53:21.397Z,22.81
2022-08-07T10:56:20.869Z,22.82
2022-08-07T10:59:09.606Z,22.92
2022-08-07T11:02:02.771Z,23.06
2022-08-07T11:04:51.329Z,23.10
2022-08-07T11:07:58.604Z,23.15
2022-08-07T11:10:32.299Z,23.19
2022-08-07T11:13:16.786Z,23.29
2022-08-07T11:15:57.379Z,23.39
2022-08-07T11:18:37.083Z,23.47
2022-08-07T11:21:23.164Z,23.51
2022-08-07T11:24:01.253Z,23.56
2022-08-07T11:26:48.256Z,23.61
2022-08-07T11:29:42.516Z,23.77
2022-08-07T11:32:36.092Z,23.74
2022-08-07T11:35:16.665Z,23.78
2022-08-07T11:38:17.570Z,23.80
2022-08-07T11:41:00.076Z,23.86
2022-08-07T11:44:10.740Z,23.91
2022-08-07T11:46:38.835Z,24.07
2022-08-07T11:50:11.398Z,24.16
2022-08-07T11:52:29.278Z,24.26
2022-08-07T11:55:18.527Z,24.33
2022-08-07T11:58:16.285Z,24.32
2022-08-07T12:01:13.064Z,24.31
2022-08-07T12:03:47.321Z,24.28
2022-08-07T12:06:39.027Z,24.27
2022-08-07T12:09:16.373Z,24.31
2022-08-07T12:12:09.171Z,24.32
2022-08-07T12:15:17.430Z,24.32
2022-08-07T12:18:29.755Z,24.35
2022-08-07T12:21:55.086Z,24.33
2022-08-07T12:24:37.316Z,24.35
2022-08-07T12:27:28.025Z,24.38
2022-08-07T12:30:13.165Z,24.44
2022-08-07T12:32:49.114Z,24.52
2022-08-07T12:35:16.963Z,24.53
2022-08-07T12:38:17.800Z,24.48
2022-08-07T12:40:55.123Z,24.56
2022-08-07T12:44:03.502Z,24.97
2022-08-07T12:46:32.699Z,25.34
2022-08-07T12:49:49.133Z,25.57
2022-08-07T12:52:23.234Z,25.85
2022-08-07T12:55:16.590Z,26.06
2022-08-07T12:58:01.264Z,26.21
2022-08-07T13:00:49.625Z,26.46
2022-08-07T13:03:59.352Z,26.69
2022-08-07T13:06:27.185Z,26.88
2022-08-07T13:10:19.633Z,27.09
2022-08-07T13:12:15.113Z,27.11
2022-08-07T13:15:09.029Z,27.23
2022-08-07T13:18:01.164Z,27.19
2022-08-07T13:20:39.561Z,27.28
2022-08-07T13:24:01.625Z,27.17
2022-08-07T13:26:18.265Z,27.19
2022-08-07T13:28:50.177Z,27.08
2022-08-07T13:31:55.086Z,26.97
2022-08-07T13:34:35.858Z,26.71
2022-08-07T13:37:41.140Z,26.62
2022-08-07T13:40:36.404Z,26.60
2022-08-07T13:43:11.812Z,26.84
2022-08-07T13:46:10.948Z,26.90
2022-08-07T13:48:51.722Z,26.84
2022-08-07T13:52:05.549Z,26.71
2022-08-07T13:54:22.588Z,26.53
2022-08-07T13:57:00.105Z,26.47
2022-08-07T13:59:32.357Z,26.29
2022-08-07T14:02:15.212Z,26.19
2022-08-07T14:05:04.232Z,26.02
2022-08-07T14:08:00.100Z,25.92
2022-08-07T14:10:41.976Z,25.81
2022-08-07T14:13:12.898Z,25.61
2022-08-07T14:15:51.290Z,25.45
2022-08-07T14:18:29.251Z,25.33
2022-08-07T14:22:01.286Z,25.25
2022-08-07T14:24:23.006Z,25.17
2022-08-07T14:28:09.743Z,25.13
2022-08-07T14:30:05.288Z,25.10
2022-08-07T14:32:42.928Z,25.06
2022-08-07T14:35:44.675Z,25.04
2022-08-07T14:38:31.187Z,24.97
2022-08-07T14:41:33.953Z,24.92
2022-08-07T14:44:22.020Z,24.84
2022-08-07T14:47:08.420Z,24.79
2022-08-07T14:49:56.507Z,24.77
2022-08-07T14:52:28.772Z,24.77
2022-08-07T14:55:09.126Z,24.66
2022-08-07T14:57:58.273Z,24.62
2022-08-07T15:00:34.625Z,24.59
2022-08-07T15:03:18.608Z,24.59
2022-08-07T15:11:54.371Z,24.56
2022-08-07T15:14:36.053Z,24.51
2022-08-07T15:17:55.297Z,24.51
2022-08-07T15:20:33.723Z,24.54
2022-08-07T15:23:53.545Z,24.54
2022-08-07T15:26:20.748Z,24.53
2022-08-07T15:28:55.467Z,24.54
2022-08-07T15:32:01.656Z,24.54
2022-08-07T15:34:20.821Z,24.50
2022-08-07T15:37:04.055Z,24.49
2022-08-07T15:39:57.070Z,24.50
2022-08-07T15:42:43.525Z,24.54
2022-08-07T15:45:13.487Z,24.75
2022-08-07T15:48:12.554Z,24.90
2022-08-07T15:51:08.196Z,25.11
2022-08-07T15:53:53.078Z,25.24
2022-08-07T15:56:24.248Z,25.16
2022-08-07T15:59:00.063Z,25.00
2022-08-07T16:01:38.347Z,24.93
2022-08-07T16:04:18.049Z,24.83
2022-08-07T16:07:01.068Z,24.76
2022-08-07T16:09:42.309Z,24.65
2022-08-07T16:12:29.211Z,24.57
2022-08-07T16:15:54.854Z,24.50
2022-08-07T16:18:49.524Z,24.40
2022-08-07T16:21:56.938Z,24.33
2022-08-07T16:24:35.106Z,24.24
2022-08-07T16:27:18.151Z,24.15
2022-08-07T16:30:30.499Z,24.02
2022-08-07T16:34:03.451Z,23.91
2022-08-07T16:36:19.645Z,23.80
2022-08-07T16:39:21.038Z,23.74
2022-08-07T16:42:13.129Z,23.67
2022-08-07T16:45:15.427Z,23.66
2022-08-07T16:48:28.715Z,23.57
2022-08-07T16:51:54.405Z,23.50
2022-08-07T16:54:09.026Z,23.40
2022-08-07T16:56:53.260Z,23.32
2022-08-07T16:59:46.611Z,23.24
2022-08-07T17:02:53.192Z,23.14
2022-08-07T17:06:26.734Z,23.03
2022-08-07T17:09:09.787Z,22.99
2022-08-07T17:12:01.212Z,22.98
2022-08-07T17:14:49.045Z,22.94
2022-08-07T17:17:46.247Z,22.87
2022-08-07T17:20:30.028Z,22.87
2022-08-07T17:23:08.646Z,22.82
2022-08-07T17:25:52.705Z,22.78
2022-08-07T17:28:49.906Z,22.79
2022-08-07T17:32:02.474Z,22.78
2022-08-07T17:35:32.881Z,22.73
2022-08-07T17:38:05.113Z,22.64
2022-08-07T17:42:00.849Z,22.61
2022-08-07T17:44:02.670Z,22.54
2022-08-07T17:46:57.038Z,22.54
2022-08-07T17:49:44.636Z,22.51
2022-08-07T17:52:12.861Z,22.47
2022-08-07T17:54:53.920Z,22.44
2022-08-07T17:57:25.004Z,22.43
2022-08-07T18:00:34.260Z,22.39
2022-08-07T18:04:04.005Z,22.35
2022-08-07T18:06:37.046Z,22.38
2022-08-07T18:09:15.903Z,22.32
2022-08-07T18:12:16.739Z,22.31
2022-08-07T18:14:44.908Z,22.31
2022-08-07T18:19:02.627Z,22.32
2022-08-07T18:21:11.946Z,22.27
2022-08-07T18:23:43.068Z,22.30
2022-08-07T18:26:14.878Z,22.26
2022-08-07T18:30:07.659Z,22.27
2022-08-07T18:32:13.699Z,22.26
2022-08-07T18:35:05.048Z,22.25
2022-08-07T18:38:56.910Z,22.27
2022-08-07T18:41:21.047Z,22.20
2022-08-07T18:43:58.118Z,22.19
2022-08-07T18:46:37.023Z,22.19
2022-08-07T18:50:30.304Z,22.12
2022-08-07T18:52:40.834Z,22.05
2022-08-07T18:55:43.003Z,21.96
2022-08-07T18:58:17.008Z,21.89
2022-08-07T19:00:54.157Z,21.90
2022-08-07T19:03:52.285Z,21.95
2022-08-07T19:06:41.128Z,21.92
2022-08-07T19:09:55.306Z,21.91
2022-08-07T19:12:26.425Z,21.88
2022-08-07T19:15:01.454Z,21.84
2022-08-07T19:18:03.808Z,21.84
2022-08-07T19:20:39.867Z,21.87
2022-08-07T19:23:57.982Z,21.89
2022-08-07T19:26:47.948Z,21.80
2022-08-07T19:31:04.456Z,21.78
2022-08-07T19:32:25.867Z,21.75
2022-08-07T19:35:03.284Z,21.72
2022-08-07T19:37:56.608Z,21.68
2022-08-07T19:40:36.819Z,21.66
2022-08-07T19:43:21.619Z,21.65
2022-08-07T19:46:01.083Z,21.66
2022-08-07T19:48:42.672Z,21.69
2022-08-07T19:51:19.549Z,21.72
2022-08-07T19:54:34.644Z,21.73
2022-08-07T19:58:01.163Z,21.78
2022-08-07T19:59:42.215Z,21.81
2022-08-07T20:02:19.607Z,21.78
2022-08-07T20:04:52.273Z,21.76
2022-08-07T20:07:46.553Z,21.76
2022-08-07T20:10:36.070Z,21.75
2022-08-07T20:13:27.149Z,21.67
2022-08-07T20:16:00.648Z,21.67
2022-08-07T20:18:36.035Z,21.68
2022-08-07T20:21:20.937Z,21.68
2022-08-07T20:24:00.508Z,21.68
2022-08-07T20:26:32.107Z,21.64
2022-08-07T20:29:10.468Z,21.64
2022-08-07T20:31:47.809Z,21.67
2022-08-07T20:34:49.197Z,21.71
2022-08-07T20:37:15.225Z,21.73
2022-08-07T20:40:03.207Z,21.76
2022-08-07T20:42:39.617Z,21.75
2022-08-07T20:46:24.963Z,21.72
2022-08-07T20:48:08.918Z,21.69
2022-08-07T20:50:43.051Z,21.67
2022-08-07T20:53:25.859Z,21.69
2022-08-07T20:56:16.208Z,21.64
2022-08-07T20:58:56.269Z,21.61
2022-08-07T21:01:29.618Z,21.59
2022-08-07T21:04:25.360Z,21.60
2022-08-07T21:06:57.331Z,21.63
2022-08-07T21:09:53.055Z,21.61
2022-08-07T21:12:28.935Z,21.54
2022-08-07T21:15:06.117Z,21.52
2022-08-07T21:18:17.331Z,21.48
2022-08-07T21:20:33.275Z,21.46
2022-08-07T21:23:08.304Z,21.45
2022-08-07T21:25:56.692Z,21.43
2022-08-07T21:28:49.035Z,21.41
2022-08-07T21:31:50.076Z,21.37
2022-08-07T21:34:26.724Z,21.35
2022-08-07T21:37:11.093Z,21.33
2022-08-07T21:40:10.061Z,21.30
2022-08-07T21:42:46.518Z,21.28
2022-08-07T21:46:09.351Z,21.26
2022-08-07T21:48:56.519Z,21.24
2022-08-07T21:51:50.953Z,21.22
2022-08-07T21:54:33.991Z,21.17
2022-08-07T21:57:03.645Z,21.11
2022-08-07T22:00:04.424Z,21.05
2022-08-07T22:02:51.053Z,21.00
2022-08-07T22:05:45.614Z,21.02
2022-08-07T22:08:23.258Z,21.01
2022-08-07T22:10:53.882Z,20.98
2022-08-07T22:13:52.074Z,20.92
2022-08-07T22:16:39.514Z,20.83
2022-08-07T22:19:29.596Z,20.77
2022-08-07T22:22:17.627Z,20.70
2022-08-07T22:25:12.199Z,20.64
2022-08-07T22:28:07.528Z,20.60
2022-08-07T22:30:39.753Z,20.50
2022-08-07T22:33:17.984Z,20.44
2022-08-07T22:36:19.000Z,20.39
2022-08-07T22:39:11.093Z,20.41
2022-08-07T22:42:03.539Z,20.41
2022-08-07T22:44:57.883Z,20.37
2022-08-07T22:47:49.402Z,20.33
2022-08-07T22:50:37.707Z,20.32
2022-08-07T22:54:06.273Z,20.33
2022-08-07T22:56:38.346Z,20.27
2022-08-07T22:59:33.963Z,20.31
2022-08-07T23:02:03.481Z,20.27
2022-08-07T23:04:58.647Z,20.25
2022-08-07T23:07:41.824Z,20.23
2022-08-07T23:10:39.639Z,20.20
2022-08-07T23:13:49.063Z,20.17
2022-08-07T23:16:46.482Z,20.12
2022-08-07T23:20:02.931Z,20.06
2022-08-07T23:22:33.033Z,20.05
2022-08-07T23:25:11.153Z,20.04
2022-08-07T23:28:22.806Z,20.00
2022-08-07T23:31:11.301Z,19.99
2022-08-07T23:34:20.846Z,20.00
2022-08-07T23:37:19.064Z,19.87
2022-08-07T23:40:01.994Z,19.85
2022-08-07T23:42:48.007Z,19.66
2022-08-07T23:46:02.900Z,19.51
2022-08-07T23:48:51.980Z,19.19
2022-08-07T23:53:00.668Z,19.17
2022-08-07T23:54:35.922Z,19.12
2022-08-07T23:57:28.074Z,19.08
